createdAt,value
2022-12-19T17:11:37.563Z,771.00
2022-12-19T17:12:37.461Z,761.00
2022-12-19T17:13:37.406Z,767.00
2022-12-19T17:14:37.318Z,770.00
2022-12-19T17:15:37.252Z,773.00
2022-12-19T17:16:37.200Z,777.00
2022-12-19T17:17:37.091Z,900.00
2022-12-19T17:18:37.006Z,796.00
2022-12-19T17:19:36.929Z,794.00
2022-12-19T17:20:36.821Z,793.00
2022-12-19T17:21:36.752Z,974.00
2022-12-19T17:22:36.651Z,795.00
2022-12-19T17:23:36.580Z,785.00
2022-12-19T17:24:36.484Z,788.00
2022-12-19T17:25:36.396Z,784.00
2022-12-19T17:26:36.320Z,786.00
2022-12-19T17:27:36.226Z,779.00
2022-12-19T17:28:36.138Z,771.00
2022-12-19T17:29:36.063Z,770.00
2022-12-19T17:30:36.003Z,771.00
2022-12-19T17:31:35.953Z,774.00
2022-12-19T17:32:35.856Z,776.00
2022-12-19T17:33:35.682Z,775.00
2022-12-19T17:34:35.596Z,775.00
2022-12-19T17:35:35.495Z,836.00
2022-12-19T17:36:37.711Z,790.00
2022-12-19T17:37:35.425Z,783.00
2022-12-19T17:38:35.310Z,778.00
2022-12-19T17:39:35.228Z,780.00
2022-12-19T17:40:35.142Z,778.00
2022-12-19T17:41:35.046Z,768.00
2022-12-19T17:42:37.434Z,763.00
2022-12-19T21:22:37.838Z,2402.00
2022-12-19T21:23:37.874Z,2296.00
2022-12-19T21:24:37.543Z,2298.00
2022-12-19T21:25:37.451Z,2280.00
2022-12-19T21:26:37.970Z,1370.00
2022-12-19T21:27:37.560Z,1128.00
2022-12-19T21:28:37.268Z,760.00
2022-12-19T21:29:37.083Z,663.00
2022-12-19T21:30:39.838Z,546.00
2022-12-19T21:31:37.196Z,457.00
2022-12-19T21:32:38.934Z,614.00
2022-12-19T21:33:36.996Z,893.00
2022-12-19T21:34:36.911Z,1243.00
2022-12-19T21:36:36.867Z,1395.00
2022-12-19T21:37:43.140Z,1480.00
2022-12-19T21:38:37.641Z,1512.00
2022-12-19T21:39:37.342Z,1532.00
2022-12-19T21:40:36.724Z,1536.00
2022-12-19T21:41:36.739Z,1526.00
2022-12-19T21:42:36.334Z,1497.00
2022-12-19T21:43:36.343Z,1497.00
2022-12-19T21:44:36.166Z,1429.00
2022-12-19T21:45:36.887Z,1426.00
2022-12-19T21:46:35.994Z,1430.00
2022-12-19T21:47:35.859Z,1434.00
2022-12-19T21:48:35.658Z,1433.00
2022-12-19T21:49:36.402Z,1451.00
2022-12-19T21:50:38.845Z,1457.00
2022-12-19T21:51:37.419Z,1455.00
2022-12-19T21:52:37.324Z,1451.00
2022-12-19T21:53:35.382Z,1452.00
2022-12-19T21:54:36.936Z,1455.00
2022-12-19T21:55:35.199Z,1457.00
2022-12-19T21:56:35.103Z,1455.00
2022-12-19T21:57:35.003Z,1452.00
2022-12-19T21:58:34.907Z,1451.00
2022-12-19T21:59:34.809Z,1447.00
2022-12-19T22:00:34.807Z,1446.00
2022-12-19T22:01:34.745Z,1447.00
2022-12-19T22:02:34.663Z,1443.00
2022-12-19T22:03:35.264Z,1445.00
2022-12-19T22:04:34.368Z,1448.00
2022-12-19T22:05:34.349Z,1446.00
2022-12-19T22:06:34.375Z,1443.00
2022-12-19T22:07:34.352Z,1436.00
2022-12-19T22:08:34.358Z,1440.00
2022-12-19T22:09:34.368Z,1440.00
2022-12-19T22:10:33.855Z,1437.00
2022-12-19T22:11:33.883Z,1434.00
2022-12-19T22:12:33.874Z,1426.00
2022-12-19T22:13:33.673Z,1421.00
2022-12-19T22:14:33.267Z,1430.00
2022-12-19T22:15:33.413Z,1428.00
2022-12-19T22:16:33.396Z,1435.00
2022-12-19T22:22:33.419Z,1423.00
2022-12-19T22:23:34.369Z,1426.00
2022-12-19T22:24:33.233Z,1431.00
2022-12-19T22:25:33.888Z,1432.00
2022-12-19T22:26:33.887Z,1433.00
2022-12-19T22:27:32.452Z,1434.00
2022-12-19T22:28:32.259Z,1434.00
2022-12-19T22:29:32.360Z,1434.00
2022-12-19T22:30:32.046Z,1435.00
2022-12-19T22:31:32.024Z,1435.00
2022-12-19T22:32:31.872Z,1434.00
2022-12-19T22:33:31.763Z,1430.00
2022-12-19T22:34:31.691Z,1430.00
2022-12-19T22:35:32.389Z,1427.00
2022-12-19T22:36:31.891Z,1428.00
2022-12-19T22:37:31.951Z,1427.00
2022-12-19T22:38:31.386Z,1428.00
2022-12-19T22:39:34.361Z,1429.00
2022-12-19T22:40:31.395Z,1424.00
2022-12-19T22:41:31.094Z,1427.00
2022-12-19T22:42:30.997Z,1432.00
2022-12-19T22:43:30.925Z,1433.00
2022-12-19T22:44:30.923Z,1433.00
2022-12-19T22:45:30.857Z,1433.00
2022-12-19T22:46:30.831Z,1432.00
2022-12-19T22:47:30.555Z,1430.00
2022-12-19T22:48:31.491Z,1429.00
2022-12-19T22:49:30.951Z,1429.00
2022-12-19T22:50:30.954Z,1430.00
2022-12-19T22:51:30.461Z,1431.00
2022-12-19T22:52:30.460Z,1428.00
2022-12-19T22:53:30.179Z,1427.00
2022-12-19T22:54:30.088Z,1429.00
2022-12-19T22:55:29.970Z,1428.00
2022-12-19T22:56:29.870Z,1428.00
2022-12-19T22:57:29.790Z,1428.00
2022-12-19T22:58:29.698Z,1429.00
2022-12-19T22:59:29.590Z,1428.00
2022-12-19T23:00:29.485Z,1429.00
2022-12-19T23:01:29.575Z,1429.00
2022-12-19T23:02:29.684Z,1424.00
2022-12-19T23:03:29.451Z,1426.00
2022-12-19T23:04:29.302Z,1424.00
2022-12-19T23:05:29.136Z,1426.00
2022-12-19T23:06:29.045Z,1428.00
2022-12-19T23:07:28.918Z,1431.00
2022-12-19T23:08:30.454Z,1432.00
2022-12-19T23:09:30.489Z,1431.00
2022-12-19T23:10:30.496Z,1432.00
2022-12-19T23:11:29.483Z,1434.00
2022-12-19T23:12:28.538Z,1437.00
2022-12-19T23:13:28.464Z,1447.00
2022-12-19T23:14:28.389Z,1443.00
2022-12-19T23:15:28.296Z,1439.00
2022-12-19T23:16:28.532Z,1437.00
2022-12-19T23:17:28.509Z,1437.00
2022-12-19T23:18:28.082Z,1439.00
2022-12-19T23:19:27.967Z,1437.00
2022-12-19T23:20:27.884Z,1441.00
2022-12-19T23:21:27.777Z,1439.00
2022-12-19T23:22:27.704Z,1437.00
2022-12-19T23:23:27.612Z,1438.00
2022-12-19T23:24:28.030Z,1437.00
2022-12-19T23:25:27.503Z,1439.00
2022-12-19T23:26:27.503Z,1442.00
2022-12-19T23:27:27.523Z,1444.00
2022-12-19T23:28:27.540Z,1446.00
2022-12-19T23:29:28.999Z,1446.00
2022-12-19T23:30:27.018Z,1442.00
2022-12-19T23:31:26.934Z,1441.00
2022-12-19T23:32:26.890Z,1445.00
2022-12-19T23:33:26.771Z,1448.00
2022-12-19T23:34:26.661Z,1452.00
2022-12-19T23:35:26.539Z,1451.00
2022-12-19T23:37:08.994Z,1454.00
2022-12-19T23:37:27.405Z,1448.00
2022-12-19T23:38:26.969Z,1450.00
2022-12-19T23:39:26.483Z,1455.00
2022-12-19T23:40:26.469Z,1455.00
2022-12-19T23:41:26.499Z,1455.00
2022-12-19T23:42:26.014Z,1453.00
2022-12-19T23:43:25.893Z,1454.00
2022-12-19T23:44:25.812Z,1455.00
2022-12-19T23:45:26.425Z,1456.00
2022-12-19T23:46:25.655Z,1457.00
2022-12-19T23:47:25.925Z,1459.00
2022-12-19T23:48:25.401Z,1457.00
2022-12-19T23:49:25.406Z,1461.00
2022-12-19T23:50:25.431Z,1461.00
2022-12-19T23:51:25.146Z,1458.00
2022-12-19T23:52:25.023Z,1460.00
2022-12-19T23:53:25.131Z,1459.00
2022-12-19T23:54:24.855Z,1460.00
2022-12-19T23:55:24.836Z,1460.00
2022-12-19T23:56:24.941Z,1459.00
2022-12-19T23:57:24.666Z,1457.00
2022-12-19T23:58:25.077Z,1457.00
2022-12-19T23:59:24.449Z,1468.00
